Gilmore, Missouri
Current Conditions -  °F | °C
As of 1:54 AM on Friday 31 Oct 2014 (Local Time) from KSUS Reporting Station
Clear Clear  
Wind Chill: 45°   Ceiling: Unl
Heat Index: 45°   Visibility: 10mi
Dew Point: 43°   Wind: 0mph
Humidity: 93%   Direction: NA
Pressure: 30.07"   Gusts: NA
Location:  38.7993°N, 90.8471°W
Report Text: KSUS 310654Z AUTO 00000KT 10SM CLR 07/06 A3007 RMK AO2 SLP182 T00720061
Loading
Personal Weather Stations






























Interactive Weather Map
Tropical Storm Tracking
New forecast layout! Learn more

10-Day Weather Forecast

Advertisements
Track Severe Weather on mobile